createdAt,value
2019-04-29T00:01:24.740Z,99.80
2019-04-29T00:03:52.103Z,99.90
2019-04-29T00:06:19.619Z,99.90
2019-04-29T00:08:47.180Z,99.90
2019-04-29T00:11:14.413Z,99.90
2019-04-29T00:13:41.782Z,99.90
2019-04-29T00:16:29.248Z,99.90
2019-04-29T00:19:16.130Z,99.90
2019-04-29T00:21:43.494Z,99.90
2019-04-29T00:24:10.848Z,99.90
2019-04-29T00:26:38.297Z,99.90
2019-04-29T00:29:05.662Z,99.90
2019-04-29T00:31:33.114Z,99.90
2019-04-29T00:34:00.492Z,99.90
2019-04-29T00:36:31.922Z,99.90
2019-04-29T00:39:24.514Z,99.90
2019-04-29T00:42:09.949Z,99.90
2019-04-29T00:44:37.269Z,99.90
2019-04-29T00:47:04.639Z,99.90
2019-04-29T00:49:31.874Z,99.90
2019-04-29T00:51:59.260Z,99.90
2019-04-29T00:54:33.346Z,99.90
2019-04-29T00:57:00.627Z,99.90
2019-04-29T00:59:27.945Z,99.90
2019-04-29T01:01:55.319Z,99.90
2019-04-29T01:04:22.674Z,99.90
2019-04-29T01:06:50.037Z,99.90
2019-04-29T01:09:17.794Z,99.90
2019-04-29T01:11:45.232Z,99.90
2019-04-29T01:14:12.531Z,99.90
2019-04-29T01:16:39.857Z,99.90
2019-04-29T01:19:07.193Z,99.90
2019-04-29T01:21:34.465Z,99.90
2019-04-29T01:24:01.793Z,99.90
2019-04-29T01:26:54.471Z,99.90
2019-04-29T01:29:22.550Z,99.90
2019-04-29T01:31:49.869Z,99.90
2019-04-29T01:34:22.185Z,99.90
2019-04-29T01:36:49.575Z,99.90
2019-04-29T01:39:17.153Z,99.90
2019-04-29T01:42:01.918Z,99.90
2019-04-29T01:44:30.873Z,99.90
2019-04-29T01:46:58.211Z,99.90
2019-04-29T01:49:25.464Z,99.90
2019-04-29T01:51:52.782Z,99.90
2019-04-29T01:54:20.188Z,99.90
2019-04-29T01:56:47.577Z,99.90
2019-04-29T01:59:14.961Z,99.90
2019-04-29T02:01:42.386Z,99.90
2019-04-29T02:04:09.795Z,99.90
2019-04-29T02:06:37.035Z,99.90
2019-04-29T02:09:09.935Z,99.90
2019-04-29T02:11:36.487Z,99.90
2019-04-29T02:14:03.872Z,99.90
2019-04-29T02:16:31.225Z,99.90
2019-04-29T02:18:58.585Z,99.90
2019-04-29T02:21:25.933Z,99.90
2019-04-29T02:24:15.509Z,99.90
2019-04-29T02:26:42.876Z,99.90
2019-04-29T02:29:10.326Z,99.90
2019-04-29T02:31:37.680Z,99.90
2019-04-29T02:34:08.156Z,99.90
2019-04-29T02:36:35.579Z,99.90
2019-04-29T02:39:33.556Z,99.90
2019-04-29T02:42:20.806Z,99.90
2019-04-29T02:44:49.168Z,99.90
2019-04-29T02:47:16.513Z,99.90
2019-04-29T02:49:43.863Z,99.90
2019-04-29T02:52:11.227Z,99.90
2019-04-29T02:54:38.750Z,99.90
2019-04-29T02:57:25.831Z,99.90
2019-04-29T02:59:57.436Z,99.90
2019-04-29T03:02:32.834Z,99.90
2019-04-29T03:05:17.537Z,99.90
2019-04-29T03:07:44.901Z,99.90
2019-04-29T03:10:12.313Z,99.90
2019-04-29T03:12:39.739Z,99.90
2019-04-29T03:15:07.278Z,99.90
2019-04-29T03:17:34.514Z,99.90
2019-04-29T03:20:27.396Z,99.90
2019-04-29T03:23:12.394Z,99.90
2019-04-29T03:25:39.859Z,99.90
2019-04-29T03:28:07.176Z,99.90
2019-04-29T03:30:34.516Z,99.90
2019-04-29T03:33:01.785Z,99.90
2019-04-29T03:35:29.164Z,99.90
2019-04-29T03:37:56.507Z,99.90
2019-04-29T03:40:23.740Z,99.90
2019-04-29T03:42:51.064Z,99.90
2019-04-29T03:45:18.461Z,99.90
2019-04-29T03:47:45.857Z,99.90
2019-04-29T03:50:13.173Z,99.90
2019-04-29T03:52:40.530Z,99.90
2019-04-29T03:55:08.495Z,99.90
2019-04-29T03:57:36.734Z,99.90
2019-04-29T04:00:04.852Z,99.90
2019-04-29T04:02:41.680Z,99.90
2019-04-29T04:05:28.561Z,99.90
2019-04-29T04:08:03.490Z,99.90
2019-04-29T04:10:30.924Z,99.90
2019-04-29T04:12:58.285Z,99.90
2019-04-29T04:15:25.751Z,99.90
2019-04-29T04:18:01.319Z,99.90
2019-04-29T04:20:28.686Z,99.90
2019-04-29T04:22:56.066Z,99.90
2019-04-29T04:25:23.480Z,99.90
2019-04-29T04:27:50.911Z,99.90
2019-04-29T04:30:18.699Z,99.90
2019-04-29T04:32:46.033Z,99.90
2019-04-29T04:35:13.511Z,99.90
2019-04-29T04:37:40.870Z,99.90
2019-04-29T04:40:10.682Z,99.90
2019-04-29T04:42:38.052Z,99.90
2019-04-29T04:45:05.630Z,99.90
2019-04-29T04:47:32.972Z,99.90
2019-04-29T04:50:00.211Z,99.90
2019-04-29T04:52:27.582Z,99.90
2019-04-29T04:54:55.400Z,99.90
2019-04-29T04:57:22.769Z,99.90
2019-04-29T04:59:50.140Z,99.90
2019-04-29T05:02:17.538Z,99.90
2019-04-29T05:04:44.770Z,99.90
2019-04-29T05:07:12.159Z,99.90
2019-04-29T05:09:39.516Z,99.90
2019-04-29T05:12:06.854Z,99.90
2019-04-29T05:14:34.242Z,99.90
2019-04-29T05:17:01.536Z,99.90
2019-04-29T05:19:28.765Z,99.90
2019-04-29T05:21:56.026Z,99.90
2019-04-29T05:24:23.397Z,99.90
2019-04-29T05:26:50.741Z,99.90
2019-04-29T05:29:18.057Z,99.90
2019-04-29T05:31:45.377Z,99.90
2019-04-29T05:34:14.217Z,99.90
2019-04-29T05:36:54.490Z,99.90
2019-04-29T05:39:28.009Z,99.90
2019-04-29T05:41:55.325Z,99.90
2019-04-29T05:44:31.839Z,99.90
2019-04-29T05:47:08.257Z,99.90
2019-04-29T05:49:53.590Z,99.90
2019-04-29T05:52:30.054Z,99.90
2019-04-29T05:54:57.600Z,99.90
2019-04-29T05:57:25.630Z,99.90
2019-04-29T05:59:54.241Z,99.90
2019-04-29T06:02:24.014Z,99.90
2019-04-29T06:04:52.396Z,99.90
2019-04-29T06:07:21.526Z,99.90
2019-04-29T06:09:49.235Z,99.90
2019-04-29T06:12:16.664Z,99.90
2019-04-29T06:14:43.987Z,99.90
2019-04-29T06:17:11.393Z,99.90
2019-04-29T06:19:39.254Z,99.90
2019-04-29T06:22:08.025Z,99.90
2019-04-29T06:24:36.955Z,99.90
2019-04-29T06:27:04.782Z,99.90
2019-04-29T06:29:32.118Z,99.90
2019-04-29T06:31:59.751Z,99.90
2019-04-29T06:34:27.145Z,99.90
2019-04-29T06:36:54.556Z,99.90
2019-04-29T06:39:21.814Z,99.90
2019-04-29T06:41:49.248Z,99.90
2019-04-29T06:44:17.016Z,99.90
2019-04-29T06:46:44.402Z,99.90
2019-04-29T06:49:11.782Z,99.90
2019-04-29T06:51:39.181Z,99.90
2019-04-29T06:54:06.418Z,99.90
2019-04-29T06:56:33.774Z,99.90
2019-04-29T06:59:01.160Z,99.90
2019-04-29T07:01:28.494Z,99.90
2019-04-29T07:03:59.743Z,99.80
2019-04-29T07:06:25.090Z,99.60
2019-04-29T07:08:52.451Z,99.30
2019-04-29T07:11:19.964Z,99.10
2019-04-29T07:13:47.430Z,98.90
2019-04-29T07:16:16.973Z,98.70
2019-04-29T07:18:48.333Z,98.50
2019-04-29T07:21:13.156Z,98.40
2019-04-29T07:23:40.499Z,98.10
2019-04-29T07:26:08.021Z,98.00
2019-04-29T07:28:35.433Z,97.90
2019-04-29T07:31:03.249Z,97.70
2019-04-29T07:33:30.631Z,97.60
2019-04-29T07:36:10.361Z,97.40
2019-04-29T07:38:40.138Z,97.10
2019-04-29T07:40:56.383Z,97.00
2019-04-29T07:43:23.681Z,96.80
2019-04-29T07:46:10.603Z,96.70
2019-04-29T07:48:41.821Z,96.40
2019-04-29T07:51:07.179Z,96.20
2019-04-29T07:53:44.473Z,96.00
2019-04-29T07:56:06.239Z,95.80
2019-04-29T07:58:32.857Z,95.70
2019-04-29T08:01:00.193Z,95.40
2019-04-29T08:03:27.577Z,95.20
2019-04-29T08:05:55.647Z,94.80
2019-04-29T08:08:23.489Z,94.50
2019-04-29T08:10:56.051Z,94.30
2019-04-29T08:13:21.407Z,94.00
2019-04-29T08:15:48.783Z,93.50
2019-04-29T08:18:18.100Z,93.20
2019-04-29T08:20:45.350Z,92.90
2019-04-29T08:23:12.751Z,92.50
2019-04-29T08:25:40.196Z,92.10
2019-04-29T08:28:07.580Z,91.60
2019-04-29T08:30:34.833Z,91.20
2019-04-29T08:33:02.171Z,90.10
2019-04-29T08:35:32.758Z,89.00
2019-04-29T08:37:58.878Z,88.20
2019-04-29T08:40:26.205Z,87.40
2019-04-29T08:43:05.434Z,86.60
2019-04-29T08:45:42.370Z,85.20
2019-04-29T08:48:09.694Z,83.70
2019-04-29T08:50:37.038Z,82.70
2019-04-29T08:53:04.826Z,80.40
2019-04-29T08:55:35.988Z,79.40
2019-04-29T08:58:01.446Z,79.00
2019-04-29T09:00:28.686Z,78.40
2019-04-29T09:02:56.014Z,77.10
2019-04-29T09:05:23.415Z,76.10
2019-04-29T09:07:52.500Z,75.50
2019-04-29T09:10:20.140Z,73.80
2019-04-29T09:12:47.687Z,72.30
2019-04-29T09:15:15.441Z,71.00
2019-04-29T09:17:42.676Z,69.50
2019-04-29T09:20:10.340Z,67.40
2019-04-29T09:22:40.619Z,65.60
2019-04-29T09:25:42.441Z,64.00
2019-04-29T09:28:15.110Z,62.20
2019-04-29T09:30:40.230Z,58.10
2019-04-29T09:33:08.680Z,53.00
2019-04-29T09:35:38.851Z,49.30
2019-04-29T09:38:06.144Z,44.70
2019-04-29T09:40:37.592Z,40.80
2019-04-29T09:43:15.676Z,37.90
2019-04-29T09:45:48.748Z,35.60
2019-04-29T09:48:15.954Z,33.50
2019-04-29T09:50:43.366Z,31.90
2019-04-29T09:53:11.120Z,30.60
2019-04-29T09:55:40.104Z,29.20
2019-04-29T09:58:07.659Z,28.30
2019-04-29T10:00:54.504Z,27.30
2019-04-29T10:03:33.611Z,26.70
2019-04-29T10:06:08.644Z,29.00
2019-04-29T10:08:35.969Z,29.80
2019-04-29T10:11:03.733Z,29.90
2019-04-29T10:13:31.121Z,29.10
2019-04-29T10:16:17.330Z,28.90
2019-04-29T10:19:00.619Z,27.40
2019-04-29T10:21:26.857Z,27.00
2019-04-29T10:23:54.264Z,26.50
2019-04-29T10:26:21.604Z,26.50
2019-04-29T10:29:01.927Z,27.40
2019-04-29T10:31:29.277Z,28.80
2019-04-29T10:33:56.639Z,28.30
2019-04-29T10:36:26.202Z,27.30
2019-04-29T10:38:54.971Z,26.90
2019-04-29T10:41:36.164Z,25.70
2019-04-29T10:44:24.290Z,25.60
2019-04-29T10:47:04.969Z,25.00
2019-04-29T10:49:39.243Z,24.60
2019-04-29T10:52:05.877Z,24.60
2019-04-29T10:54:33.231Z,26.20
2019-04-29T10:57:01.191Z,28.10
2019-04-29T10:59:35.874Z,28.50
2019-04-29T11:02:30.377Z,29.50
2019-04-29T11:05:07.907Z,31.20
2019-04-29T11:07:38.593Z,33.50
2019-04-29T11:10:24.807Z,33.20
2019-04-29T11:12:43.831Z,31.80
2019-04-29T11:15:14.083Z,31.30
2019-04-29T11:17:44.624Z,31.70
2019-04-29T11:20:11.171Z,31.00
2019-04-29T11:22:44.728Z,29.90
2019-04-29T11:25:40.395Z,29.20
2019-04-29T11:28:07.642Z,28.90
2019-04-29T11:30:39.580Z,29.50
2019-04-29T11:33:12.185Z,31.50
2019-04-29T11:35:43.959Z,32.00
2019-04-29T11:38:11.530Z,32.40
2019-04-29T11:40:43.670Z,32.70
2019-04-29T11:43:10.962Z,33.20
2019-04-29T11:45:40.027Z,33.70
2019-04-29T11:48:07.583Z,35.10
2019-04-29T11:50:45.194Z,36.40
2019-04-29T11:53:14.206Z,37.90
2019-04-29T11:55:44.593Z,39.30
2019-04-29T11:58:24.538Z,39.90
2019-04-29T12:01:10.212Z,40.20
2019-04-29T12:03:38.890Z,40.60
2019-04-29T12:06:07.993Z,41.30
2019-04-29T12:08:35.338Z,41.60
2019-04-29T12:11:07.188Z,42.60
2019-04-29T12:13:42.309Z,43.30
2019-04-29T12:16:40.792Z,43.80
2019-04-29T12:19:12.952Z,44.30
2019-04-29T12:21:40.441Z,44.10
2019-04-29T12:24:08.103Z,43.70
2019-04-29T12:26:43.173Z,43.00
2019-04-29T12:29:04.695Z,42.60
2019-04-29T12:31:44.806Z,42.20
2019-04-29T12:34:39.201Z,42.10
2019-04-29T12:37:16.313Z,42.70
2019-04-29T12:40:01.645Z,43.10
2019-04-29T12:42:55.208Z,43.50
2019-04-29T12:45:26.480Z,42.90
2019-04-29T12:47:53.888Z,42.80
2019-04-29T12:50:22.840Z,42.20
2019-04-29T12:52:50.411Z,41.90
2019-04-29T12:55:39.577Z,42.80
2019-04-29T12:57:51.662Z,43.40
2019-04-29T13:00:23.967Z,44.00
2019-04-29T13:03:00.270Z,44.20
2019-04-29T13:05:58.390Z,43.40
2019-04-29T13:08:25.737Z,43.40
2019-04-29T13:10:55.512Z,43.60
2019-04-29T13:13:22.860Z,43.80
2019-04-29T13:16:20.018Z,44.20
2019-04-29T13:19:20.150Z,44.60
2019-04-29T13:21:44.756Z,44.90
2019-04-29T13:24:22.947Z,45.00
2019-04-29T13:26:42.982Z,45.00
2019-04-29T13:29:25.868Z,44.70
2019-04-29T13:31:40.091Z,44.20
2019-04-29T13:34:23.607Z,43.80
2019-04-29T13:36:38.739Z,43.50
2019-04-29T13:39:07.637Z,43.00
2019-04-29T13:41:35.163Z,42.80
2019-04-29T13:44:05.548Z,43.10
2019-04-29T13:46:50.959Z,42.40
2019-04-29T13:49:46.785Z,42.70
2019-04-29T13:52:13.517Z,43.20
2019-04-29T13:54:42.343Z,43.60
2019-04-29T13:57:15.653Z,43.60
2019-04-29T14:00:11.787Z,43.40
2019-04-29T14:02:58.486Z,43.60
2019-04-29T14:05:18.925Z,43.40
2019-04-29T14:07:48.742Z,43.50
2019-04-29T14:10:16.788Z,44.00
2019-04-29T14:12:50.337Z,44.70
2019-04-29T14:15:13.794Z,44.90
2019-04-29T14:17:41.331Z,45.10
2019-04-29T14:20:10.836Z,45.00
2019-04-29T14:22:38.405Z,44.60
2019-04-29T14:25:06.009Z,44.70
2019-04-29T14:27:33.371Z,45.00
2019-04-29T14:30:02.952Z,45.10
2019-04-29T14:32:36.030Z,45.00
2019-04-29T14:35:12.976Z,45.00
2019-04-29T14:37:54.094Z,45.30
2019-04-29T14:40:09.853Z,45.60
2019-04-29T14:42:57.845Z,46.20
2019-04-29T14:45:46.979Z,46.00
2019-04-29T14:48:25.336Z,45.40
2019-04-29T14:50:54.140Z,45.40
2019-04-29T14:53:24.399Z,45.70
2019-04-29T14:55:51.248Z,45.50
2019-04-29T14:58:18.619Z,45.80
2019-04-29T15:01:24.022Z,46.30
2019-04-29T15:03:59.792Z,46.50
2019-04-29T15:06:29.012Z,46.70
2019-04-29T15:08:56.811Z,46.80
2019-04-29T15:11:31.983Z,47.20
2019-04-29T15:14:03.138Z,47.40
2019-04-29T15:16:35.840Z,47.40
2019-04-29T15:19:21.421Z,47.40
2019-04-29T15:21:56.351Z,47.60
2019-04-29T15:24:27.561Z,47.60
2019-04-29T15:26:53.092Z,47.90
2019-04-29T15:29:20.506Z,48.00
2019-04-29T15:31:48.950Z,48.20
2019-04-29T15:34:16.503Z,48.00
2019-04-29T15:36:43.878Z,48.00
2019-04-29T15:39:12.167Z,48.10
2019-04-29T15:41:40.058Z,48.20
2019-04-29T15:44:09.044Z,48.00
2019-04-29T15:46:46.283Z,48.30
2019-04-29T15:49:06.081Z,48.80
2019-04-29T15:51:33.515Z,48.50
2019-04-29T15:54:00.988Z,48.60
2019-04-29T15:56:33.376Z,48.70
2019-04-29T15:58:59.518Z,48.90
2019-04-29T16:01:29.736Z,49.30
2019-04-29T16:03:58.090Z,49.60
2019-04-29T16:06:45.878Z,49.70
2019-04-29T16:09:52.131Z,49.70
2019-04-29T16:12:23.745Z,49.80
2019-04-29T16:14:51.122Z,50.00
2019-04-29T16:17:20.658Z,50.10
2019-04-29T16:19:47.878Z,50.40
2019-04-29T16:22:19.767Z,50.60
2019-04-29T16:24:44.498Z,51.00
2019-04-29T16:27:11.889Z,51.20
2019-04-29T16:29:39.343Z,51.50
2019-04-29T16:32:08.686Z,51.80
2019-04-29T16:34:37.388Z,52.30
2019-04-29T16:37:05.351Z,52.50
2019-04-29T16:39:33.032Z,52.70
2019-04-29T16:42:18.395Z,52.80
2019-04-29T16:44:46.017Z,52.80
2019-04-29T16:47:15.603Z,52.80
2019-04-29T16:49:43.407Z,52.90
2019-04-29T16:52:10.846Z,52.90
2019-04-29T16:54:38.184Z,53.20
2019-04-29T16:57:05.673Z,53.30
2019-04-29T16:59:32.977Z,53.40
2019-04-29T17:02:00.453Z,53.40
2019-04-29T17:04:27.706Z,53.60
2019-04-29T17:07:11.712Z,53.90
2019-04-29T17:09:42.968Z,54.10
2019-04-29T17:12:10.643Z,54.30
2019-04-29T17:15:02.288Z,54.70
2019-04-29T17:17:11.209Z,54.90
2019-04-29T17:19:38.585Z,55.10
2019-04-29T17:22:24.819Z,55.30
2019-04-29T17:24:35.926Z,55.40
2019-04-29T17:27:25.593Z,55.70
2019-04-29T17:30:11.028Z,56.00
2019-04-29T17:32:54.899Z,56.00
2019-04-29T17:37:51.387Z,56.40
2019-04-29T17:40:20.513Z,56.60
2019-04-29T17:42:54.355Z,57.20
2019-04-29T17:45:31.053Z,57.80
2019-04-29T17:48:08.788Z,58.20
2019-04-29T17:50:46.461Z,59.10
2019-04-29T17:53:31.699Z,60.00
2019-04-29T17:56:08.201Z,61.00
2019-04-29T17:58:43.900Z,61.90
2019-04-29T18:01:42.807Z,62.60
2019-04-29T18:04:25.629Z,63.50
2019-04-29T18:07:08.325Z,64.60
2019-04-29T18:09:57.579Z,65.70
2019-04-29T18:12:25.100Z,65.80
2019-04-29T18:14:52.596Z,66.30
2019-04-29T18:17:26.913Z,66.40
2019-04-29T18:20:01.134Z,67.00
2019-04-29T18:22:54.793Z,67.80
2019-04-29T18:25:44.846Z,68.20
2019-04-29T18:28:12.257Z,69.00
2019-04-29T18:30:39.624Z,69.50
2019-04-29T18:33:07.007Z,69.80
2019-04-29T18:35:35.800Z,70.00
2019-04-29T18:38:03.401Z,70.40
2019-04-29T18:40:35.506Z,70.60
2019-04-29T18:42:59.995Z,70.80
2019-04-29T18:45:29.637Z,71.00
2019-04-29T18:47:58.149Z,71.20
2019-04-29T18:50:25.518Z,71.30
2019-04-29T18:52:52.956Z,71.50
2019-04-29T18:55:20.297Z,72.00
2019-04-29T18:57:47.689Z,72.10
2019-04-29T19:00:19.467Z,72.70
2019-04-29T19:02:46.087Z,72.90
2019-04-29T19:05:26.373Z,73.40
2019-04-29T19:08:00.086Z,73.70
2019-04-29T19:10:32.124Z,74.10
2019-04-29T19:13:00.000Z,74.10
2019-04-29T19:15:21.884Z,74.30
2019-04-29T19:17:58.677Z,74.60
2019-04-29T19:20:18.738Z,75.20
2019-04-29T19:22:47.333Z,75.10
2019-04-29T19:25:15.414Z,74.90
2019-04-29T19:27:42.824Z,75.00
2019-04-29T19:30:16.011Z,75.10
2019-04-29T19:32:40.545Z,75.20
2019-04-29T19:35:08.055Z,75.40
2019-04-29T19:37:37.583Z,75.30
2019-04-29T19:40:08.067Z,76.20
2019-04-29T19:42:36.006Z,75.50
2019-04-29T19:45:06.433Z,75.80
2019-04-29T19:47:36.048Z,76.00
2019-04-29T19:50:05.679Z,76.20
2019-04-29T19:52:34.841Z,76.30
2019-04-29T19:55:03.612Z,76.50
2019-04-29T19:57:31.025Z,76.80
2019-04-29T19:59:58.893Z,76.90
2019-04-29T20:02:26.917Z,77.90
2019-04-29T20:05:08.430Z,77.20
2019-04-29T20:07:41.427Z,77.60
2019-04-29T20:10:10.450Z,77.90
2019-04-29T20:12:38.326Z,78.20
2019-04-29T20:15:08.537Z,78.50
2019-04-29T20:17:58.029Z,79.00
2019-04-29T20:20:43.596Z,79.20
2019-04-29T20:23:11.242Z,79.30
2019-04-29T20:25:39.117Z,79.50
2019-04-29T20:28:08.886Z,80.00
2019-04-29T20:30:35.962Z,80.30
2019-04-29T20:33:09.448Z,80.50
2019-04-29T20:35:32.977Z,80.70
2019-04-29T20:38:00.672Z,81.10
2019-04-29T20:40:35.167Z,81.50
2019-04-29T20:42:57.447Z,81.60
2019-04-29T20:45:28.743Z,81.80
2019-04-29T20:47:55.914Z,81.90
2019-04-29T20:50:25.152Z,82.00
2019-04-29T20:53:05.514Z,82.50
2019-04-29T20:55:36.770Z,82.80
2019-04-29T20:58:03.929Z,83.10
2019-04-29T21:00:35.249Z,83.20
2019-04-29T21:03:04.088Z,83.60
2019-04-29T21:05:32.348Z,84.00
2019-04-29T21:08:03.382Z,84.20
2019-04-29T21:10:30.277Z,84.50
2019-04-29T21:13:29.158Z,84.80
2019-04-29T21:16:10.645Z,85.20
2019-04-29T21:18:38.842Z,85.70
2019-04-29T21:21:07.864Z,86.30
2019-04-29T21:23:36.617Z,86.50
2019-04-29T21:26:05.431Z,86.70
2019-04-29T21:28:38.230Z,87.00
2019-04-29T21:31:02.664Z,87.20
2019-04-29T21:33:31.264Z,87.40
2019-04-29T21:36:07.669Z,87.70
2019-04-29T21:39:04.052Z,88.00
2019-04-29T21:41:39.845Z,88.20
2019-04-29T21:44:07.261Z,88.40
2019-04-29T21:46:35.125Z,88.70
2019-04-29T21:49:06.775Z,88.80
2019-04-29T21:51:33.286Z,89.00
2019-04-29T21:54:00.729Z,89.00
2019-04-29T21:56:28.229Z,89.20
2019-04-29T21:58:56.761Z,89.20
2019-04-29T22:01:25.153Z,89.30
2019-04-29T22:03:52.517Z,89.60
2019-04-29T22:06:19.884Z,89.60
2019-04-29T22:08:47.151Z,89.80
2019-04-29T22:11:15.500Z,89.80
2019-04-29T22:13:45.284Z,89.90
2019-04-29T22:16:15.819Z,89.90
2019-04-29T22:18:44.637Z,89.80
2019-04-29T22:21:15.026Z,89.90
2019-04-29T22:23:44.339Z,89.90
2019-04-29T22:26:10.201Z,89.90
2019-04-29T22:28:37.519Z,89.90
2019-04-29T22:31:05.384Z,89.80
2019-04-29T22:33:38.334Z,89.90
2019-04-29T22:36:05.334Z,89.80
2019-04-29T22:38:32.931Z,89.70
2019-04-29T22:41:02.446Z,89.70
2019-04-29T22:43:40.363Z,89.60
2019-04-29T22:46:09.436Z,89.40
2019-04-29T22:48:34.983Z,89.20
2019-04-29T22:51:02.391Z,89.10
2019-04-29T22:53:29.648Z,89.10
2019-04-29T22:55:57.015Z,88.90
2019-04-29T22:58:24.938Z,88.70
2019-04-29T23:00:52.320Z,88.40
2019-04-29T23:03:19.550Z,88.30
2019-04-29T23:05:46.881Z,88.30
2019-04-29T23:08:15.209Z,88.20
2019-04-29T23:10:42.749Z,88.20
2019-04-29T23:13:10.029Z,88.00
2019-04-29T23:15:37.365Z,87.60
2019-04-29T23:18:05.154Z,87.30
2019-04-29T23:21:04.032Z,87.40
2019-04-29T23:23:39.380Z,87.20
2019-04-29T23:26:06.732Z,87.20
2019-04-29T23:28:35.603Z,87.20
2019-04-29T23:31:03.105Z,87.30
2019-04-29T23:33:30.546Z,87.40
2019-04-29T23:35:57.873Z,87.40
2019-04-29T23:38:25.541Z,87.50
2019-04-29T23:40:54.628Z,87.70
2019-04-29T23:43:25.316Z,87.90
2019-04-29T23:45:51.773Z,87.90
2019-04-29T23:48:23.844Z,88.00
2019-04-29T23:50:54.674Z,88.00
2019-04-29T23:53:20.784Z,88.00
2019-04-29T23:55:48.448Z,88.00
2019-04-29T23:58:23.472Z,88.20
